sensor_id;sensor_type;location;lat;lon;timestamp;P1;durP1;ratioP1;P2;durP2;ratioP2
39050;SDS011;24805;55.852;37.644;2023-03-23T00:00:43;3.17;;;1.50;;
39050;SDS011;24805;55.852;37.644;2023-03-23T00:05:44;3.20;;;1.50;;
39050;SDS011;24805;55.852;37.644;2023-03-23T00:10:50;3.25;;;1.70;;
39050;SDS011;24805;55.852;37.644;2023-03-23T00:15:57;3.67;;;1.70;;
39050;SDS011;24805;55.852;37.644;2023-03-23T00:20:58;2.83;;;1.42;;
39050;SDS011;24805;55.852;37.644;2023-03-23T00:25:59;3.15;;;1.88;;
39050;SDS011;24805;55.852;37.644;2023-03-23T00:31:02;1.77;;;1.27;;
39050;SDS011;24805;55.852;37.644;2023-03-23T00:36:09;2.40;;;1.40;;
39050;SDS011;24805;55.852;37.644;2023-03-23T00:41:11;4.03;;;1.60;;
39050;SDS011;24805;55.852;37.644;2023-03-23T00:46:12;2.73;;;1.53;;
39050;SDS011;24805;55.852;37.644;2023-03-23T00:51:13;2.15;;;1.50;;
39050;SDS011;24805;55.852;37.644;2023-03-23T00:56:14;3.78;;;1.67;;
39050;SDS011;24805;55.852;37.644;2023-03-23T01:01:16;2.20;;;1.45;;
39050;SDS011;24805;55.852;37.644;2023-03-23T01:06:17;2.70;;;1.45;;
39050;SDS011;24805;55.852;37.644;2023-03-23T01:11:18;2.00;;;1.08;;
39050;SDS011;24805;55.852;37.644;2023-03-23T01:16:19;2.15;;;1.40;;
39050;SDS011;24805;55.852;37.644;2023-03-23T01:21:20;3.15;;;1.50;;
39050;SDS011;24805;55.852;37.644;2023-03-23T01:26:22;2.40;;;1.77;;
39050;SDS011;24805;55.852;37.644;2023-03-23T01:31:25;3.35;;;2.13;;
39050;SDS011;24805;55.852;37.644;2023-03-23T01:36:27;3.60;;;1.60;;
39050;SDS011;24805;55.852;37.644;2023-03-23T01:41:35;3.33;;;2.20;;
39050;SDS011;24805;55.852;37.644;2023-03-23T01:46:45;3.97;;;1.85;;
39050;SDS011;24805;55.852;37.644;2023-03-23T01:51:53;4.80;;;2.35;;
39050;SDS011;24805;55.852;37.644;2023-03-23T01:56:59;3.47;;;2.28;;
39050;SDS011;24805;55.852;37.644;2023-03-23T02:02:01;5.05;;;2.42;;
39050;SDS011;24805;55.852;37.644;2023-03-23T02:07:03;4.65;;;1.98;;
39050;SDS011;24805;55.852;37.644;2023-03-23T02:12:04;3.00;;;2.25;;
39050;SDS011;24805;55.852;37.644;2023-03-23T02:17:09;3.83;;;2.38;;
39050;SDS011;24805;55.852;37.644;2023-03-23T02:42:56;5.97;;;1.90;;
39050;SDS011;24805;55.852;37.644;2023-03-23T02:47:59;3.60;;;2.28;;
39050;SDS011;24805;55.852;37.644;2023-03-23T02:53:03;4.25;;;2.35;;
39050;SDS011;24805;55.852;37.644;2023-03-23T02:58:10;4.28;;;2.13;;
39050;SDS011;24805;55.852;37.644;2023-03-23T03:03:13;3.88;;;1.95;;
39050;SDS011;24805;55.852;37.644;2023-03-23T03:08:22;5.57;;;3.00;;
39050;SDS011;24805;55.852;37.644;2023-03-23T03:24:17;3.85;;;2.13;;
39050;SDS011;24805;55.852;37.644;2023-03-23T03:29:32;4.95;;;2.88;;
39050;SDS011;24805;55.852;37.644;2023-03-23T03:34:36;4.28;;;2.33;;
39050;SDS011;24805;55.852;37.644;2023-03-23T03:39:38;5.00;;;2.50;;
39050;SDS011;24805;55.852;37.644;2023-03-23T03:44:39;4.20;;;2.47;;
39050;SDS011;24805;55.852;37.644;2023-03-23T03:49:41;4.25;;;2.47;;
39050;SDS011;24805;55.852;37.644;2023-03-23T03:54:42;5.30;;;2.95;;
39050;SDS011;24805;55.852;37.644;2023-03-23T03:59:43;4.95;;;2.30;;
39050;SDS011;24805;55.852;37.644;2023-03-23T04:04:59;5.90;;;2.80;;
39050;SDS011;24805;55.852;37.644;2023-03-23T04:10:05;4.93;;;3.05;;
39050;SDS011;24805;55.852;37.644;2023-03-23T04:15:08;4.18;;;2.72;;
39050;SDS011;24805;55.852;37.644;2023-03-23T04:20:10;4.50;;;3.20;;
39050;SDS011;24805;55.852;37.644;2023-03-23T04:25:22;6.23;;;3.50;;
39050;SDS011;24805;55.852;37.644;2023-03-23T04:30:26;5.22;;;2.88;;
39050;SDS011;24805;55.852;37.644;2023-03-23T04:35:55;6.90;;;3.30;;
39050;SDS011;24805;55.852;37.644;2023-03-23T04:41:08;4.13;;;3.20;;
39050;SDS011;24805;55.852;37.644;2023-03-23T04:46:30;7.57;;;3.47;;
39050;SDS011;24805;55.852;37.644;2023-03-23T04:51:35;7.00;;;3.50;;
39050;SDS011;24805;55.852;37.644;2023-03-23T04:57:03;5.60;;;3.15;;
39050;SDS011;24805;55.852;37.644;2023-03-23T05:02:06;6.60;;;4.13;;
39050;SDS011;24805;55.852;37.644;2023-03-23T05:07:07;5.93;;;3.55;;
39050;SDS011;24805;55.852;37.644;2023-03-23T05:12:15;7.22;;;3.20;;
39050;SDS011;24805;55.852;37.644;2023-03-23T05:17:26;6.20;;;3.45;;
39050;SDS011;24805;55.852;37.644;2023-03-23T05:22:31;6.78;;;4.13;;
39050;SDS011;24805;55.852;37.644;2023-03-23T05:27:37;4.93;;;3.65;;
39050;SDS011;24805;55.852;37.644;2023-03-23T05:32:52;6.90;;;4.15;;
39050;SDS011;24805;55.852;37.644;2023-03-23T05:38:06;7.47;;;4.13;;
39050;SDS011;24805;55.852;37.644;2023-03-23T05:43:08;9.07;;;4.63;;
39050;SDS011;24805;55.852;37.644;2023-03-23T05:48:19;6.13;;;4.67;;
39050;SDS011;24805;55.852;37.644;2023-03-23T05:53:20;11.15;;;5.22;;
39050;SDS011;24805;55.852;37.644;2023-03-23T05:58:21;6.60;;;4.50;;
39050;SDS011;24805;55.852;37.644;2023-03-23T06:03:22;8.43;;;5.32;;
39050;SDS011;24805;55.852;37.644;2023-03-23T06:08:35;10.13;;;5.00;;
39050;SDS011;24805;55.852;37.644;2023-03-23T06:13:38;10.73;;;4.88;;
39050;SDS011;24805;55.852;37.644;2023-03-23T06:18:43;7.68;;;5.00;;
39050;SDS011;24805;55.852;37.644;2023-03-23T06:23:49;6.97;;;4.72;;
39050;SDS011;24805;55.852;37.644;2023-03-23T06:28:53;9.77;;;5.20;;
39050;SDS011;24805;55.852;37.644;2023-03-23T06:33:55;7.78;;;4.68;;
39050;SDS011;24805;55.852;37.644;2023-03-23T06:38:59;11.07;;;5.88;;
39050;SDS011;24805;55.852;37.644;2023-03-23T06:44:17;11.27;;;6.05;;
39050;SDS011;24805;55.852;37.644;2023-03-23T06:49:18;9.93;;;6.15;;
39050;SDS011;24805;55.852;37.644;2023-03-23T06:54:28;12.45;;;5.53;;
39050;SDS011;24805;55.852;37.644;2023-03-23T06:59:29;11.40;;;5.57;;
39050;SDS011;24805;55.852;37.644;2023-03-23T07:04:30;11.05;;;6.13;;
39050;SDS011;24805;55.852;37.644;2023-03-23T07:09:46;8.63;;;5.85;;
39050;SDS011;24805;55.852;37.644;2023-03-23T07:14:50;13.77;;;6.60;;
39050;SDS011;24805;55.852;37.644;2023-03-23T07:19:52;11.30;;;6.00;;
39050;SDS011;24805;55.852;37.644;2023-03-23T07:24:53;10.43;;;5.35;;
39050;SDS011;24805;55.852;37.644;2023-03-23T07:30:04;10.82;;;5.57;;
39050;SDS011;24805;55.852;37.644;2023-03-23T07:35:07;11.55;;;5.68;;
39050;SDS011;24805;55.852;37.644;2023-03-23T07:40:27;9.63;;;5.15;;
39050;SDS011;24805;55.852;37.644;2023-03-23T07:45:34;9.18;;;5.78;;
39050;SDS011;24805;55.852;37.644;2023-03-23T07:50:36;8.15;;;5.32;;
39050;SDS011;24805;55.852;37.644;2023-03-23T07:55:42;9.95;;;5.30;;
39050;SDS011;24805;55.852;37.644;2023-03-23T08:01:02;8.50;;;5.20;;
39050;SDS011;24805;55.852;37.644;2023-03-23T08:06:06;9.73;;;5.03;;
39050;SDS011;24805;55.852;37.644;2023-03-23T08:11:29;7.47;;;4.38;;
39050;SDS011;24805;55.852;37.644;2023-03-23T08:16:51;11.13;;;4.93;;
39050;SDS011;24805;55.852;37.644;2023-03-23T08:22:14;6.72;;;4.60;;
39050;SDS011;24805;55.852;37.644;2023-03-23T08:27:44;6.25;;;4.40;;
39050;SDS011;24805;55.852;37.644;2023-03-23T08:32:53;7.13;;;4.65;;
39050;SDS011;24805;55.852;37.644;2023-03-23T08:38:14;6.63;;;4.70;;
39050;SDS011;24805;55.852;37.644;2023-03-23T08:43:36;10.45;;;5.18;;
39050;SDS011;24805;55.852;37.644;2023-03-23T08:48:53;9.80;;;4.80;;
39050;SDS011;24805;55.852;37.644;2023-03-23T08:54:17;7.45;;;4.40;;
39050;SDS011;24805;55.852;37.644;2023-03-23T08:59:31;10.00;;;4.50;;
39050;SDS011;24805;55.852;37.644;2023-03-23T09:04:58;5.95;;;4.40;;
39050;SDS011;24805;55.852;37.644;2023-03-23T09:10:18;8.63;;;4.78;;
39050;SDS011;24805;55.852;37.644;2023-03-23T09:15:20;7.22;;;3.97;;
39050;SDS011;24805;55.852;37.644;2023-03-23T09:20:24;8.35;;;4.55;;
39050;SDS011;24805;55.852;37.644;2023-03-23T09:25:26;7.13;;;4.13;;
39050;SDS011;24805;55.852;37.644;2023-03-23T09:30:32;6.82;;;3.70;;
39050;SDS011;24805;55.852;37.644;2023-03-23T09:35:36;6.05;;;4.32;;
39050;SDS011;24805;55.852;37.644;2023-03-23T09:40:43;6.22;;;4.05;;
39050;SDS011;24805;55.852;37.644;2023-03-23T09:45:58;5.32;;;3.90;;
39050;SDS011;24805;55.852;37.644;2023-03-23T09:56:18;5.55;;;3.78;;
39050;SDS011;24805;55.852;37.644;2023-03-23T10:01:25;6.25;;;4.10;;
39050;SDS011;24805;55.852;37.644;2023-03-23T10:06:36;7.10;;;3.85;;
39050;SDS011;24805;55.852;37.644;2023-03-23T10:21:57;5.55;;;3.08;;
39050;SDS011;24805;55.852;37.644;2023-03-23T10:27:16;5.70;;;3.33;;
39050;SDS011;24805;55.852;37.644;2023-03-23T10:32:46;2.80;;;2.53;;
39050;SDS011;24805;55.852;37.644;2023-03-23T10:37:52;6.50;;;2.50;;
39050;SDS011;24805;55.852;37.644;2023-03-23T10:42:58;7.25;;;3.30;;
39050;SDS011;24805;55.852;37.644;2023-03-23T10:53:17;5.03;;;3.15;;
39050;SDS011;24805;55.852;37.644;2023-03-23T10:58:30;6.90;;;3.20;;
39050;SDS011;24805;55.852;37.644;2023-03-23T11:03:40;3.92;;;2.90;;
39050;SDS011;24805;55.852;37.644;2023-03-23T11:08:48;4.68;;;2.38;;
39050;SDS011;24805;55.852;37.644;2023-03-23T11:19:26;5.47;;;3.25;;
39050;SDS011;24805;55.852;37.644;2023-03-23T11:24:37;6.65;;;2.97;;
39050;SDS011;24805;55.852;37.644;2023-03-23T11:34:54;4.68;;;2.47;;
39050;SDS011;24805;55.852;37.644;2023-03-23T11:50:24;5.50;;;2.95;;
39050;SDS011;24805;55.852;37.644;2023-03-23T11:55:30;5.60;;;3.33;;
39050;SDS011;24805;55.852;37.644;2023-03-23T12:00:37;5.05;;;3.20;;
39050;SDS011;24805;55.852;37.644;2023-03-23T12:26:31;3.55;;;2.33;;
39050;SDS011;24805;55.852;37.644;2023-03-23T12:31:47;5.03;;;2.72;;
39050;SDS011;24805;55.852;37.644;2023-03-23T12:42:54;7.22;;;3.42;;
39050;SDS011;24805;55.852;37.644;2023-03-23T12:48:12;5.60;;;2.30;;
39050;SDS011;24805;55.852;37.644;2023-03-23T12:58:44;6.15;;;3.60;;
39050;SDS011;24805;55.852;37.644;2023-03-23T13:03:52;5.30;;;3.13;;
39050;SDS011;24805;55.852;37.644;2023-03-23T13:08:57;4.95;;;2.20;;
39050;SDS011;24805;55.852;37.644;2023-03-23T13:25:14;5.20;;;3.20;;
39050;SDS011;24805;55.852;37.644;2023-03-23T13:30:23;5.65;;;3.20;;
39050;SDS011;24805;55.852;37.644;2023-03-23T13:35:24;4.10;;;2.92;;
39050;SDS011;24805;55.852;37.644;2023-03-23T13:40:27;19.27;;;3.90;;
39050;SDS011;24805;55.852;37.644;2023-03-23T13:50:31;6.05;;;3.55;;
39050;SDS011;24805;55.852;37.644;2023-03-23T13:55:52;7.32;;;3.47;;
39050;SDS011;24805;55.852;37.644;2023-03-23T14:02:21;5.90;;;3.38;;
39050;SDS011;24805;55.852;37.644;2023-03-23T14:06:51;5.20;;;3.25;;
39050;SDS011;24805;55.852;37.644;2023-03-23T14:12:04;10.90;;;3.25;;
39050;SDS011;24805;55.852;37.644;2023-03-23T14:17:15;10.50;;;3.00;;
39050;SDS011;24805;55.852;37.644;2023-03-23T14:22:33;12.18;;;3.08;;
39050;SDS011;24805;55.852;37.644;2023-03-23T14:27:36;10.00;;;3.08;;
39050;SDS011;24805;55.852;37.644;2023-03-23T14:32:37;6.10;;;3.37;;
39050;SDS011;24805;55.852;37.644;2023-03-23T14:37:38;12.30;;;3.58;;
39050;SDS011;24805;55.852;37.644;2023-03-23T14:42:40;6.07;;;3.10;;
39050;SDS011;24805;55.852;37.644;2023-03-23T14:52:47;5.65;;;2.80;;
39050;SDS011;24805;55.852;37.644;2023-03-23T14:57:49;8.13;;;3.35;;
39050;SDS011;24805;55.852;37.644;2023-03-23T15:02:54;7.07;;;3.20;;
39050;SDS011;24805;55.852;37.644;2023-03-23T15:08:00;10.20;;;3.28;;
39050;SDS011;24805;55.852;37.644;2023-03-23T15:13:05;7.00;;;2.83;;
39050;SDS011;24805;55.852;37.644;2023-03-23T15:18:32;6.35;;;3.58;;
39050;SDS011;24805;55.852;37.644;2023-03-23T15:23:40;8.07;;;3.83;;
39050;SDS011;24805;55.852;37.644;2023-03-23T15:28:43;6.32;;;3.38;;
39050;SDS011;24805;55.852;37.644;2023-03-23T15:33:44;10.45;;;3.50;;
39050;SDS011;24805;55.852;37.644;2023-03-23T15:38:45;6.80;;;3.35;;
39050;SDS011;24805;55.852;37.644;2023-03-23T15:43:51;9.60;;;3.72;;
39050;SDS011;24805;55.852;37.644;2023-03-23T15:53:58;7.75;;;3.55;;
39050;SDS011;24805;55.852;37.644;2023-03-23T15:59:00;8.20;;;3.30;;
39050;SDS011;24805;55.852;37.644;2023-03-23T16:04:09;6.32;;;4.03;;
39050;SDS011;24805;55.852;37.644;2023-03-23T16:09:18;6.93;;;4.00;;
39050;SDS011;24805;55.852;37.644;2023-03-23T16:14:21;8.27;;;3.85;;
39050;SDS011;24805;55.852;37.644;2023-03-23T16:19:23;8.63;;;4.25;;
39050;SDS011;24805;55.852;37.644;2023-03-23T16:29:27;5.88;;;3.22;;
39050;SDS011;24805;55.852;37.644;2023-03-23T16:34:34;6.07;;;3.67;;
39050;SDS011;24805;55.852;37.644;2023-03-23T16:39:37;5.38;;;3.17;;
39050;SDS011;24805;55.852;37.644;2023-03-23T16:49:41;5.07;;;3.63;;
39050;SDS011;24805;55.852;37.644;2023-03-23T16:59:45;6.82;;;3.92;;
39050;SDS011;24805;55.852;37.644;2023-03-23T17:09:49;9.65;;;4.70;;
39050;SDS011;24805;55.852;37.644;2023-03-23T17:14:51;10.77;;;4.68;;
39050;SDS011;24805;55.852;37.644;2023-03-23T17:24:56;8.40;;;4.15;;
39050;SDS011;24805;55.852;37.644;2023-03-23T17:29:59;7.93;;;4.65;;
39050;SDS011;24805;55.852;37.644;2023-03-23T17:35:02;5.55;;;3.78;;
39050;SDS011;24805;55.852;37.644;2023-03-23T17:40:06;9.57;;;3.95;;
39050;SDS011;24805;55.852;37.644;2023-03-23T17:45:10;13.95;;;5.35;;
39050;SDS011;24805;55.852;37.644;2023-03-23T17:50:13;9.55;;;4.68;;
39050;SDS011;24805;55.852;37.644;2023-03-23T18:00:17;8.98;;;4.43;;
39050;SDS011;24805;55.852;37.644;2023-03-23T18:05:20;11.95;;;5.18;;
39050;SDS011;24805;55.852;37.644;2023-03-23T18:10:22;8.40;;;4.72;;
39050;SDS011;24805;55.852;37.644;2023-03-23T18:20:43;6.45;;;4.05;;
39050;SDS011;24805;55.852;37.644;2023-03-23T18:25:46;13.00;;;5.28;;
39050;SDS011;24805;55.852;37.644;2023-03-23T18:35:55;14.57;;;6.05;;
39050;SDS011;24805;55.852;37.644;2023-03-23T18:41:04;15.30;;;7.15;;
39050;SDS011;24805;55.852;37.644;2023-03-23T18:46:07;12.32;;;6.85;;
39050;SDS011;24805;55.852;37.644;2023-03-23T18:51:09;9.30;;;5.63;;
39050;SDS011;24805;55.852;37.644;2023-03-23T18:56:13;12.35;;;5.93;;
39050;SDS011;24805;55.852;37.644;2023-03-23T19:01:17;9.10;;;6.78;;
39050;SDS011;24805;55.852;37.644;2023-03-23T19:06:21;8.65;;;5.57;;
39050;SDS011;24805;55.852;37.644;2023-03-23T19:11:28;7.60;;;5.47;;
39050;SDS011;24805;55.852;37.644;2023-03-23T19:16:31;8.43;;;5.45;;
39050;SDS011;24805;55.852;37.644;2023-03-23T19:21:37;7.45;;;5.65;;
39050;SDS011;24805;55.852;37.644;2023-03-23T19:26:41;10.10;;;6.55;;
39050;SDS011;24805;55.852;37.644;2023-03-23T19:31:45;7.38;;;5.53;;
39050;SDS011;24805;55.852;37.644;2023-03-23T19:36:48;9.65;;;6.25;;
39050;SDS011;24805;55.852;37.644;2023-03-23T19:42:00;10.50;;;6.38;;
39050;SDS011;24805;55.852;37.644;2023-03-23T19:47:02;12.23;;;6.60;;
39050;SDS011;24805;55.852;37.644;2023-03-23T19:52:05;8.13;;;6.10;;
39050;SDS011;24805;55.852;37.644;2023-03-23T19:57:13;9.25;;;6.60;;
39050;SDS011;24805;55.852;37.644;2023-03-23T20:02:16;8.77;;;5.68;;
39050;SDS011;24805;55.852;37.644;2023-03-23T20:07:18;9.95;;;5.32;;
39050;SDS011;24805;55.852;37.644;2023-03-23T20:12:22;8.82;;;5.20;;
39050;SDS011;24805;55.852;37.644;2023-03-23T20:17:24;11.80;;;6.53;;
39050;SDS011;24805;55.852;37.644;2023-03-23T20:22:26;14.10;;;6.43;;
39050;SDS011;24805;55.852;37.644;2023-03-23T20:27:29;10.55;;;6.03;;
39050;SDS011;24805;55.852;37.644;2023-03-23T20:32:31;8.38;;;5.45;;
39050;SDS011;24805;55.852;37.644;2023-03-23T20:37:34;8.35;;;5.47;;
39050;SDS011;24805;55.852;37.644;2023-03-23T20:42:41;10.63;;;5.65;;
39050;SDS011;24805;55.852;37.644;2023-03-23T20:47:44;9.07;;;5.45;;
39050;SDS011;24805;55.852;37.644;2023-03-23T20:52:47;7.68;;;5.38;;
39050;SDS011;24805;55.852;37.644;2023-03-23T20:57:49;6.75;;;4.88;;
39050;SDS011;24805;55.852;37.644;2023-03-23T21:02:51;7.68;;;5.40;;
39050;SDS011;24805;55.852;37.644;2023-03-23T21:07:54;8.75;;;5.72;;
39050;SDS011;24805;55.852;37.644;2023-03-23T21:12:58;7.45;;;5.28;;
39050;SDS011;24805;55.852;37.644;2023-03-23T21:18:01;6.38;;;5.18;;
39050;SDS011;24805;55.852;37.644;2023-03-23T21:23:04;7.75;;;5.78;;
39050;SDS011;24805;55.852;37.644;2023-03-23T21:28:06;10.32;;;6.30;;
39050;SDS011;24805;55.852;37.644;2023-03-23T21:33:10;9.82;;;5.57;;
39050;SDS011;24805;55.852;37.644;2023-03-23T21:38:13;7.53;;;5.40;;
39050;SDS011;24805;55.852;37.644;2023-03-23T21:48:17;9.05;;;5.82;;
39050;SDS011;24805;55.852;37.644;2023-03-23T21:53:22;10.70;;;6.18;;
39050;SDS011;24805;55.852;37.644;2023-03-23T21:58:26;11.43;;;6.78;;
39050;SDS011;24805;55.852;37.644;2023-03-23T22:03:28;10.98;;;6.65;;
39050;SDS011;24805;55.852;37.644;2023-03-23T22:08:36;10.63;;;6.75;;
39050;SDS011;24805;55.852;37.644;2023-03-23T22:13:39;12.82;;;8.80;;
39050;SDS011;24805;55.852;37.644;2023-03-23T22:18:43;10.20;;;7.22;;
39050;SDS011;24805;55.852;37.644;2023-03-23T22:23:46;10.73;;;6.60;;
39050;SDS011;24805;55.852;37.644;2023-03-23T22:28:49;12.18;;;7.55;;
39050;SDS011;24805;55.852;37.644;2023-03-23T22:33:53;12.90;;;7.45;;
39050;SDS011;24805;55.852;37.644;2023-03-23T22:38:56;11.88;;;8.27;;
39050;SDS011;24805;55.852;37.644;2023-03-23T22:43:58;12.60;;;8.60;;
39050;SDS011;24805;55.852;37.644;2023-03-23T22:49:01;11.75;;;7.30;;
39050;SDS011;24805;55.852;37.644;2023-03-23T22:54:04;12.50;;;8.90;;
39050;SDS011;24805;55.852;37.644;2023-03-23T22:59:07;12.60;;;9.40;;
39050;SDS011;24805;55.852;37.644;2023-03-23T23:04:09;15.27;;;9.40;;
39050;SDS011;24805;55.852;37.644;2023-03-23T23:09:12;11.90;;;8.40;;
39050;SDS011;24805;55.852;37.644;2023-03-23T23:14:14;12.63;;;9.10;;
39050;SDS011;24805;55.852;37.644;2023-03-23T23:19:16;11.38;;;8.85;;
39050;SDS011;24805;55.852;37.644;2023-03-23T23:24:18;8.85;;;7.03;;
39050;SDS011;24805;55.852;37.644;2023-03-23T23:29:21;12.77;;;9.30;;
39050;SDS011;24805;55.852;37.644;2023-03-23T23:34:23;13.57;;;9.93;;
39050;SDS011;24805;55.852;37.644;2023-03-23T23:39:25;13.07;;;9.48;;
39050;SDS011;24805;55.852;37.644;2023-03-23T23:44:28;11.60;;;8.68;;
39050;SDS011;24805;55.852;37.644;2023-03-23T23:49:30;14.30;;;10.18;;
39050;SDS011;24805;55.852;37.644;2023-03-23T23:54:35;14.80;;;9.70;;
39050;SDS011;24805;55.852;37.644;2023-03-23T23:59:38;13.25;;;9.63;;
